sensor_id;sensor_type;location;lat;lon;timestamp;temperature;humidity
33699;DHT22;20032;52.436;13.312;2023-04-26T00:00:32;6.00;99.90
33699;DHT22;20032;52.436;13.312;2023-04-26T00:02:58;5.90;99.90
33699;DHT22;20032;52.436;13.312;2023-04-26T00:05:24;5.90;99.90
33699;DHT22;20032;52.436;13.312;2023-04-26T00:07:50;5.90;99.90
33699;DHT22;20032;52.436;13.312;2023-04-26T00:10:15;5.80;99.90
33699;DHT22;20032;52.436;13.312;2023-04-26T00:12:41;5.90;99.90
33699;DHT22;20032;52.436;13.312;2023-04-26T00:15:07;5.80;99.90
33699;DHT22;20032;52.436;13.312;2023-04-26T00:17:34;5.80;99.90
33699;DHT22;20032;52.436;13.312;2023-04-26T00:19:59;5.80;99.90
33699;DHT22;20032;52.436;13.312;2023-04-26T00:22:25;5.80;99.90
33699;DHT22;20032;52.436;13.312;2023-04-26T00:24:51;5.70;99.90
33699;DHT22;20032;52.436;13.312;2023-04-26T00:27:16;5.70;99.90
33699;DHT22;20032;52.436;13.312;2023-04-26T00:29:42;5.80;99.90
33699;DHT22;20032;52.436;13.312;2023-04-26T00:32:07;5.80;99.90
33699;DHT22;20032;52.436;13.312;2023-04-26T00:34:35;5.80;99.90
33699;DHT22;20032;52.436;13.312;2023-04-26T00:37:02;5.80;99.90
33699;DHT22;20032;52.436;13.312;2023-04-26T00:39:28;5.80;99.90
33699;DHT22;20032;52.436;13.312;2023-04-26T00:41:54;5.80;99.90
33699;DHT22;20032;52.436;13.312;2023-04-26T00:44:20;5.60;99.90
33699;DHT22;20032;52.436;13.312;2023-04-26T00:46:45;5.60;99.90
33699;DHT22;20032;52.436;13.312;2023-04-26T00:49:15;5.60;99.90
33699;DHT22;20032;52.436;13.312;2023-04-26T00:51:42;5.60;99.90
33699;DHT22;20032;52.436;13.312;2023-04-26T00:54:08;5.60;99.90
33699;DHT22;20032;52.436;13.312;2023-04-26T00:56:35;5.60;99.90
33699;DHT22;20032;52.436;13.312;2023-04-26T00:59:02;5.60;99.90
33699;DHT22;20032;52.436;13.312;2023-04-26T01:01:27;5.60;99.90
33699;DHT22;20032;52.436;13.312;2023-04-26T01:03:53;5.60;99.90
33699;DHT22;20032;52.436;13.312;2023-04-26T01:06:21;5.60;99.90
33699;DHT22;20032;52.436;13.312;2023-04-26T01:08:51;5.50;99.90
33699;DHT22;20032;52.436;13.312;2023-04-26T01:11:19;5.50;99.90
33699;DHT22;20032;52.436;13.312;2023-04-26T01:13:46;5.50;99.90
33699;DHT22;20032;52.436;13.312;2023-04-26T01:16:13;5.40;99.90
33699;DHT22;20032;52.436;13.312;2023-04-26T01:18:40;5.40;99.90
33699;DHT22;20032;52.436;13.312;2023-04-26T01:21:05;5.40;99.90
33699;DHT22;20032;52.436;13.312;2023-04-26T01:23:31;5.40;99.90
33699;DHT22;20032;52.436;13.312;2023-04-26T01:25:56;5.40;99.90
33699;DHT22;20032;52.436;13.312;2023-04-26T01:28:22;5.40;99.90
33699;DHT22;20032;52.436;13.312;2023-04-26T01:30:47;5.30;99.90
33699;DHT22;20032;52.436;13.312;2023-04-26T01:33:13;5.40;99.90
33699;DHT22;20032;52.436;13.312;2023-04-26T01:35:40;5.30;99.90
33699;DHT22;20032;52.436;13.312;2023-04-26T01:38:05;5.40;99.90
33699;DHT22;20032;52.436;13.312;2023-04-26T01:40:31;5.30;99.90
33699;DHT22;20032;52.436;13.312;2023-04-26T01:42:56;5.20;99.90
33699;DHT22;20032;52.436;13.312;2023-04-26T01:45:22;5.20;99.90
33699;DHT22;20032;52.436;13.312;2023-04-26T01:47:48;5.20;99.90
33699;DHT22;20032;52.436;13.312;2023-04-26T01:50:14;5.20;99.90
33699;DHT22;20032;52.436;13.312;2023-04-26T01:52:40;5.20;99.90
33699;DHT22;20032;52.436;13.312;2023-04-26T01:55:06;5.20;99.90
33699;DHT22;20032;52.436;13.312;2023-04-26T01:57:31;5.20;99.90
33699;DHT22;20032;52.436;13.312;2023-04-26T01:59:57;5.10;99.90
33699;DHT22;20032;52.436;13.312;2023-04-26T02:02:23;5.10;99.90
33699;DHT22;20032;52.436;13.312;2023-04-26T02:04:49;5.10;99.90
33699;DHT22;20032;52.436;13.312;2023-04-26T02:07:16;5.10;99.90
33699;DHT22;20032;52.436;13.312;2023-04-26T02:09:41;5.10;99.90
33699;DHT22;20032;52.436;13.312;2023-04-26T02:12:07;5.20;99.90
33699;DHT22;20032;52.436;13.312;2023-04-26T02:14:32;5.10;99.90
33699;DHT22;20032;52.436;13.312;2023-04-26T02:16:58;4.90;99.90
33699;DHT22;20032;52.436;13.312;2023-04-26T02:19:23;4.90;99.90
33699;DHT22;20032;52.436;13.312;2023-04-26T02:21:51;5.00;99.90
33699;DHT22;20032;52.436;13.312;2023-04-26T02:24:17;5.00;99.90
33699;DHT22;20032;52.436;13.312;2023-04-26T02:26:42;4.90;99.90
33699;DHT22;20032;52.436;13.312;2023-04-26T02:29:08;4.90;99.90
33699;DHT22;20032;52.436;13.312;2023-04-26T02:31:33;4.90;99.90
33699;DHT22;20032;52.436;13.312;2023-04-26T02:33:59;4.90;99.90
33699;DHT22;20032;52.436;13.312;2023-04-26T02:36:24;4.90;99.90
33699;DHT22;20032;52.436;13.312;2023-04-26T02:38:53;4.80;99.90
33699;DHT22;20032;52.436;13.312;2023-04-26T02:41:18;4.80;99.90
33699;DHT22;20032;52.436;13.312;2023-04-26T02:43:44;4.70;99.90
33699;DHT22;20032;52.436;13.312;2023-04-26T02:46:09;4.70;99.90
33699;DHT22;20032;52.436;13.312;2023-04-26T02:48:35;4.70;99.90
33699;DHT22;20032;52.436;13.312;2023-04-26T02:51:01;4.70;99.90
33699;DHT22;20032;52.436;13.312;2023-04-26T02:53:27;4.70;99.90
33699;DHT22;20032;52.436;13.312;2023-04-26T02:55:54;4.70;99.90
33699;DHT22;20032;52.436;13.312;2023-04-26T02:58:19;4.70;99.90
33699;DHT22;20032;52.436;13.312;2023-04-26T03:00:46;4.70;99.90
33699;DHT22;20032;52.436;13.312;2023-04-26T03:03:13;4.60;99.90
33699;DHT22;20032;52.436;13.312;2023-04-26T03:05:39;4.60;99.90
33699;DHT22;20032;52.436;13.312;2023-04-26T03:08:06;4.50;99.90
33699;DHT22;20032;52.436;13.312;2023-04-26T03:10:32;4.60;99.90
33699;DHT22;20032;52.436;13.312;2023-04-26T03:12:57;4.60;99.90
33699;DHT22;20032;52.436;13.312;2023-04-26T03:15:23;4.50;99.90
33699;DHT22;20032;52.436;13.312;2023-04-26T03:17:48;4.60;99.90
33699;DHT22;20032;52.436;13.312;2023-04-26T03:20:14;4.50;99.90
33699;DHT22;20032;52.436;13.312;2023-04-26T03:22:39;4.50;99.90
33699;DHT22;20032;52.436;13.312;2023-04-26T03:25:05;4.50;99.90
33699;DHT22;20032;52.436;13.312;2023-04-26T03:27:32;4.50;99.90
33699;DHT22;20032;52.436;13.312;2023-04-26T03:29:57;4.40;99.90
33699;DHT22;20032;52.436;13.312;2023-04-26T03:32:23;4.40;99.90
33699;DHT22;20032;52.436;13.312;2023-04-26T03:34:48;4.30;99.90
33699;DHT22;20032;52.436;13.312;2023-04-26T03:37:14;4.40;99.90
33699;DHT22;20032;52.436;13.312;2023-04-26T03:39:39;4.40;99.90
33699;DHT22;20032;52.436;13.312;2023-04-26T03:42:06;4.50;99.90
33699;DHT22;20032;52.436;13.312;2023-04-26T03:44:32;4.40;99.90
33699;DHT22;20032;52.436;13.312;2023-04-26T03:46:58;4.40;99.90
33699;DHT22;20032;52.436;13.312;2023-04-26T03:49:24;4.40;99.90
33699;DHT22;20032;52.436;13.312;2023-04-26T03:51:49;4.50;99.90
33699;DHT22;20032;52.436;13.312;2023-04-26T03:54:15;4.40;99.90
33699;DHT22;20032;52.436;13.312;2023-04-26T03:56:40;4.40;99.90
33699;DHT22;20032;52.436;13.312;2023-04-26T03:59:06;4.40;99.90
33699;DHT22;20032;52.436;13.312;2023-04-26T04:01:33;4.40;99.90
33699;DHT22;20032;52.436;13.312;2023-04-26T04:03:59;4.40;99.90
33699;DHT22;20032;52.436;13.312;2023-04-26T04:06:24;4.50;99.90
33699;DHT22;20032;52.436;13.312;2023-04-26T04:08:49;4.40;99.90
33699;DHT22;20032;52.436;13.312;2023-04-26T04:11:15;4.40;99.90
33699;DHT22;20032;52.436;13.312;2023-04-26T04:13:41;4.40;99.90
33699;DHT22;20032;52.436;13.312;2023-04-26T04:16:07;4.40;99.90
33699;DHT22;20032;52.436;13.312;2023-04-26T04:18:34;4.30;99.90
33699;DHT22;20032;52.436;13.312;2023-04-26T04:21:00;4.40;99.90
33699;DHT22;20032;52.436;13.312;2023-04-26T04:23:25;4.40;99.90
33699;DHT22;20032;52.436;13.312;2023-04-26T04:25:53;4.30;99.90
33699;DHT22;20032;52.436;13.312;2023-04-26T04:28:18;4.40;99.90
33699;DHT22;20032;52.436;13.312;2023-04-26T04:30:44;4.50;99.90
33699;DHT22;20032;52.436;13.312;2023-04-26T04:33:10;4.40;99.90
33699;DHT22;20032;52.436;13.312;2023-04-26T04:35:36;4.40;99.90
33699;DHT22;20032;52.436;13.312;2023-04-26T04:38:02;4.50;99.90
33699;DHT22;20032;52.436;13.312;2023-04-26T04:40:27;4.50;99.90
33699;DHT22;20032;52.436;13.312;2023-04-26T04:42:53;4.50;99.90
33699;DHT22;20032;52.436;13.312;2023-04-26T04:45:19;4.60;99.90
33699;DHT22;20032;52.436;13.312;2023-04-26T04:47:45;4.60;99.90
33699;DHT22;20032;52.436;13.312;2023-04-26T04:50:12;4.60;99.90
33699;DHT22;20032;52.436;13.312;2023-04-26T04:52:37;4.60;99.90
33699;DHT22;20032;52.436;13.312;2023-04-26T04:55:03;4.60;99.90
33699;DHT22;20032;52.436;13.312;2023-04-26T04:57:29;4.60;99.90
33699;DHT22;20032;52.436;13.312;2023-04-26T04:59:55;4.70;99.90
33699;DHT22;20032;52.436;13.312;2023-04-26T05:02:21;4.70;99.90
33699;DHT22;20032;52.436;13.312;2023-04-26T05:04:47;4.70;99.90
33699;DHT22;20032;52.436;13.312;2023-04-26T05:07:13;4.80;99.90
33699;DHT22;20032;52.436;13.312;2023-04-26T05:09:41;4.90;99.90
33699;DHT22;20032;52.436;13.312;2023-04-26T05:12:06;4.90;99.90
33699;DHT22;20032;52.436;13.312;2023-04-26T05:14:33;5.00;99.90
33699;DHT22;20032;52.436;13.312;2023-04-26T05:16:58;4.90;99.90
33699;DHT22;20032;52.436;13.312;2023-04-26T05:19:24;5.00;99.90
33699;DHT22;20032;52.436;13.312;2023-04-26T05:21:50;5.00;99.90
33699;DHT22;20032;52.436;13.312;2023-04-26T05:24:16;5.00;99.90
33699;DHT22;20032;52.436;13.312;2023-04-26T05:26:42;5.10;99.90
33699;DHT22;20032;52.436;13.312;2023-04-26T05:29:07;5.10;99.90
33699;DHT22;20032;52.436;13.312;2023-04-26T05:31:33;5.20;99.90
33699;DHT22;20032;52.436;13.312;2023-04-26T05:33:59;5.20;99.90
33699;DHT22;20032;52.436;13.312;2023-04-26T05:36:26;5.10;99.90
33699;DHT22;20032;52.436;13.312;2023-04-26T05:38:55;5.10;99.90
33699;DHT22;20032;52.436;13.312;2023-04-26T05:41:21;5.10;99.90
33699;DHT22;20032;52.436;13.312;2023-04-26T05:43:46;5.10;99.90
33699;DHT22;20032;52.436;13.312;2023-04-26T05:46:12;5.20;99.90
33699;DHT22;20032;52.436;13.312;2023-04-26T05:48:37;5.40;99.90
33699;DHT22;20032;52.436;13.312;2023-04-26T05:51:03;5.50;99.90
33699;DHT22;20032;52.436;13.312;2023-04-26T05:53:29;5.60;99.90
33699;DHT22;20032;52.436;13.312;2023-04-26T05:55:54;5.50;99.90
33699;DHT22;20032;52.436;13.312;2023-04-26T05:58:20;5.40;99.90
33699;DHT22;20032;52.436;13.312;2023-04-26T06:00:45;5.40;99.90
33699;DHT22;20032;52.436;13.312;2023-04-26T06:03:12;5.50;99.90
33699;DHT22;20032;52.436;13.312;2023-04-26T06:05:39;5.50;99.90
33699;DHT22;20032;52.436;13.312;2023-04-26T06:08:05;5.50;99.90
33699;DHT22;20032;52.436;13.312;2023-04-26T06:10:31;5.70;99.90
33699;DHT22;20032;52.436;13.312;2023-04-26T06:12:56;5.70;99.90
33699;DHT22;20032;52.436;13.312;2023-04-26T06:15:22;5.80;99.90
33699;DHT22;20032;52.436;13.312;2023-04-26T06:17:47;5.80;99.90
33699;DHT22;20032;52.436;13.312;2023-04-26T06:20:13;5.90;99.90
33699;DHT22;20032;52.436;13.312;2023-04-26T06:22:38;6.00;99.90
33699;DHT22;20032;52.436;13.312;2023-04-26T06:25:06;5.90;99.90
33699;DHT22;20032;52.436;13.312;2023-04-26T06:27:32;5.90;99.90
33699;DHT22;20032;52.436;13.312;2023-04-26T06:29:58;6.00;99.90
33699;DHT22;20032;52.436;13.312;2023-04-26T06:32:25;6.20;99.90
33699;DHT22;20032;52.436;13.312;2023-04-26T06:34:51;6.30;99.90
33699;DHT22;20032;52.436;13.312;2023-04-26T06:37:16;6.40;99.90
33699;DHT22;20032;52.436;13.312;2023-04-26T06:39:42;6.40;99.90
33699;DHT22;20032;52.436;13.312;2023-04-26T06:42:09;6.30;99.90
33699;DHT22;20032;52.436;13.312;2023-04-26T06:44:35;6.20;99.90
33699;DHT22;20032;52.436;13.312;2023-04-26T06:47:01;6.30;99.90
33699;DHT22;20032;52.436;13.312;2023-04-26T06:49:26;6.30;99.90
33699;DHT22;20032;52.436;13.312;2023-04-26T06:51:52;6.30;99.90
33699;DHT22;20032;52.436;13.312;2023-04-26T06:54:18;6.40;99.90
33699;DHT22;20032;52.436;13.312;2023-04-26T06:56:45;6.40;99.90
33699;DHT22;20032;52.436;13.312;2023-04-26T06:59:11;6.50;99.90
33699;DHT22;20032;52.436;13.312;2023-04-26T07:01:37;6.60;99.90
33699;DHT22;20032;52.436;13.312;2023-04-26T07:04:04;6.70;99.90
33699;DHT22;20032;52.436;13.312;2023-04-26T07:06:32;6.70;99.90
33699;DHT22;20032;52.436;13.312;2023-04-26T07:08:59;6.70;99.90
33699;DHT22;20032;52.436;13.312;2023-04-26T07:11:25;6.80;99.90
33699;DHT22;20032;52.436;13.312;2023-04-26T07:13:50;6.80;99.90
33699;DHT22;20032;52.436;13.312;2023-04-26T07:16:16;6.90;99.90
33699;DHT22;20032;52.436;13.312;2023-04-26T07:18:41;7.10;99.90
33699;DHT22;20032;52.436;13.312;2023-04-26T07:21:07;7.10;99.90
33699;DHT22;20032;52.436;13.312;2023-04-26T07:23:33;7.30;99.90
33699;DHT22;20032;52.436;13.312;2023-04-26T07:25:58;7.40;99.90
33699;DHT22;20032;52.436;13.312;2023-04-26T07:28:25;7.40;99.90
33699;DHT22;20032;52.436;13.312;2023-04-26T07:30:52;7.40;99.90
33699;DHT22;20032;52.436;13.312;2023-04-26T07:33:17;7.50;99.90
33699;DHT22;20032;52.436;13.312;2023-04-26T07:35:43;7.60;99.90
33699;DHT22;20032;52.436;13.312;2023-04-26T07:38:08;7.80;99.90
33699;DHT22;20032;52.436;13.312;2023-04-26T07:40:34;7.90;99.90
33699;DHT22;20032;52.436;13.312;2023-04-26T07:43:00;7.90;99.90
33699;DHT22;20032;52.436;13.312;2023-04-26T07:45:26;7.90;99.90
33699;DHT22;20032;52.436;13.312;2023-04-26T07:47:52;7.90;99.90
33699;DHT22;20032;52.436;13.312;2023-04-26T07:50:19;7.60;99.90
33699;DHT22;20032;52.436;13.312;2023-04-26T07:52:45;7.40;99.90
33699;DHT22;20032;52.436;13.312;2023-04-26T07:55:11;7.40;99.90
33699;DHT22;20032;52.436;13.312;2023-04-26T07:57:36;7.70;99.90
33699;DHT22;20032;52.436;13.312;2023-04-26T08:00:03;7.90;99.90
33699;DHT22;20032;52.436;13.312;2023-04-26T08:02:32;8.20;99.90
33699;DHT22;20032;52.436;13.312;2023-04-26T08:04:57;8.30;99.90
33699;DHT22;20032;52.436;13.312;2023-04-26T08:07:23;8.30;99.90
33699;DHT22;20032;52.436;13.312;2023-04-26T08:09:48;8.40;99.90
33699;DHT22;20032;52.436;13.312;2023-04-26T08:12:13;8.50;99.90
33699;DHT22;20032;52.436;13.312;2023-04-26T08:14:39;8.80;99.90
33699;DHT22;20032;52.436;13.312;2023-04-26T08:17:06;9.10;99.90
33699;DHT22;20032;52.436;13.312;2023-04-26T08:19:34;9.00;99.90
33699;DHT22;20032;52.436;13.312;2023-04-26T08:21:59;8.80;99.90
33699;DHT22;20032;52.436;13.312;2023-04-26T08:24:25;8.60;99.90
33699;DHT22;20032;52.436;13.312;2023-04-26T08:26:51;8.10;99.90
33699;DHT22;20032;52.436;13.312;2023-04-26T08:29:17;8.10;99.90
33699;DHT22;20032;52.436;13.312;2023-04-26T08:31:43;8.10;99.90
33699;DHT22;20032;52.436;13.312;2023-04-26T08:34:09;8.20;99.90
33699;DHT22;20032;52.436;13.312;2023-04-26T08:36:36;8.40;99.90
33699;DHT22;20032;52.436;13.312;2023-04-26T08:39:02;8.40;99.90
33699;DHT22;20032;52.436;13.312;2023-04-26T08:41:32;8.30;99.90
33699;DHT22;20032;52.436;13.312;2023-04-26T08:43:59;8.30;99.90
33699;DHT22;20032;52.436;13.312;2023-04-26T08:46:32;8.30;99.90
33699;DHT22;20032;52.436;13.312;2023-04-26T08:49:12;8.40;99.90
33699;DHT22;20032;52.436;13.312;2023-04-26T08:51:40;8.50;99.90
33699;DHT22;20032;52.436;13.312;2023-04-26T08:54:06;8.80;99.90
33699;DHT22;20032;52.436;13.312;2023-04-26T08:56:33;8.80;99.90
33699;DHT22;20032;52.436;13.312;2023-04-26T08:58:59;8.90;99.90
33699;DHT22;20032;52.436;13.312;2023-04-26T09:01:27;9.10;99.90
33699;DHT22;20032;52.436;13.312;2023-04-26T09:03:54;9.20;99.90
33699;DHT22;20032;52.436;13.312;2023-04-26T09:06:22;9.30;99.90
33699;DHT22;20032;52.436;13.312;2023-04-26T09:08:49;9.30;99.90
33699;DHT22;20032;52.436;13.312;2023-04-26T09:11:16;9.50;99.90
33699;DHT22;20032;52.436;13.312;2023-04-26T09:13:42;9.70;99.90
33699;DHT22;20032;52.436;13.312;2023-04-26T09:16:07;9.60;99.90
33699;DHT22;20032;52.436;13.312;2023-04-26T09:18:34;9.70;99.90
33699;DHT22;20032;52.436;13.312;2023-04-26T09:21:11;10.00;99.90
33699;DHT22;20032;52.436;13.312;2023-04-26T09:23:57;10.10;99.90
33699;DHT22;20032;52.436;13.312;2023-04-26T09:26:23;9.90;99.90
33699;DHT22;20032;52.436;13.312;2023-04-26T09:28:49;9.70;99.90
33699;DHT22;20032;52.436;13.312;2023-04-26T09:31:36;10.00;99.90
33699;DHT22;20032;52.436;13.312;2023-04-26T09:34:02;9.60;99.90
33699;DHT22;20032;52.436;13.312;2023-04-26T09:36:28;9.50;99.90
33699;DHT22;20032;52.436;13.312;2023-04-26T09:38:54;9.20;99.90
33699;DHT22;20032;52.436;13.312;2023-04-26T09:41:20;9.00;99.90
33699;DHT22;20032;52.436;13.312;2023-04-26T09:43:48;8.80;99.90
33699;DHT22;20032;52.436;13.312;2023-04-26T09:46:21;9.20;99.90
33699;DHT22;20032;52.436;13.312;2023-04-26T09:48:59;9.90;99.90
33699;DHT22;20032;52.436;13.312;2023-04-26T09:51:25;10.70;99.90
33699;DHT22;20032;52.436;13.312;2023-04-26T09:53:51;10.90;99.90
33699;DHT22;20032;52.436;13.312;2023-04-26T09:56:18;10.60;99.90
33699;DHT22;20032;52.436;13.312;2023-04-26T10:01:15;9.60;99.90
33699;DHT22;20032;52.436;13.312;2023-04-26T10:03:42;9.50;99.90
33699;DHT22;20032;52.436;13.312;2023-04-26T10:06:08;9.60;99.90
33699;DHT22;20032;52.436;13.312;2023-04-26T10:08:34;9.80;99.90
33699;DHT22;20032;52.436;13.312;2023-04-26T10:11:02;9.70;99.90
33699;DHT22;20032;52.436;13.312;2023-04-26T10:13:31;9.60;99.90
33699;DHT22;20032;52.436;13.312;2023-04-26T10:15:58;9.70;99.90
33699;DHT22;20032;52.436;13.312;2023-04-26T10:18:25;10.00;99.90
33699;DHT22;20032;52.436;13.312;2023-04-26T10:20:53;10.10;99.90
33699;DHT22;20032;52.436;13.312;2023-04-26T10:23:21;10.20;99.90
33699;DHT22;20032;52.436;13.312;2023-04-26T10:25:50;10.30;99.90
33699;DHT22;20032;52.436;13.312;2023-04-26T10:28:17;10.30;99.90
33699;DHT22;20032;52.436;13.312;2023-04-26T10:30:59;10.40;99.90
33699;DHT22;20032;52.436;13.312;2023-04-26T10:33:25;10.30;99.90
33699;DHT22;20032;52.436;13.312;2023-04-26T10:36:01;10.40;99.90
33699;DHT22;20032;52.436;13.312;2023-04-26T10:38:27;10.60;99.90
33699;DHT22;20032;52.436;13.312;2023-04-26T10:40:52;10.50;99.90
33699;DHT22;20032;52.436;13.312;2023-04-26T10:43:26;10.60;99.90
33699;DHT22;20032;52.436;13.312;2023-04-26T10:45:52;10.60;99.90
33699;DHT22;20032;52.436;13.312;2023-04-26T10:48:22;10.30;99.90
33699;DHT22;20032;52.436;13.312;2023-04-26T10:53:31;10.50;99.90
33699;DHT22;20032;52.436;13.312;2023-04-26T10:55:57;10.30;99.90
33699;DHT22;20032;52.436;13.312;2023-04-26T10:58:31;10.30;99.90
33699;DHT22;20032;52.436;13.312;2023-04-26T11:01:17;10.20;99.90
33699;DHT22;20032;52.436;13.312;2023-04-26T11:04:07;9.90;99.90
33699;DHT22;20032;52.436;13.312;2023-04-26T11:06:53;9.80;99.90
33699;DHT22;20032;52.436;13.312;2023-04-26T11:12:08;9.50;99.90
33699;DHT22;20032;52.436;13.312;2023-04-26T11:14:35;9.50;99.90
33699;DHT22;20032;52.436;13.312;2023-04-26T11:17:03;9.60;99.90
33699;DHT22;20032;52.436;13.312;2023-04-26T11:19:30;9.60;99.90
33699;DHT22;20032;52.436;13.312;2023-04-26T11:21:56;9.60;99.90
33699;DHT22;20032;52.436;13.312;2023-04-26T11:24:24;9.70;99.90
33699;DHT22;20032;52.436;13.312;2023-04-26T11:26:51;10.00;99.90
33699;DHT22;20032;52.436;13.312;2023-04-26T11:29:18;10.80;99.90
33699;DHT22;20032;52.436;13.312;2023-04-26T11:31:51;11.60;99.90
33699;DHT22;20032;52.436;13.312;2023-04-26T11:34:20;11.70;99.90
33699;DHT22;20032;52.436;13.312;2023-04-26T11:36:47;11.40;99.90
33699;DHT22;20032;52.436;13.312;2023-04-26T11:39:12;10.90;99.90
33699;DHT22;20032;52.436;13.312;2023-04-26T11:41:38;10.60;99.90
33699;DHT22;20032;52.436;13.312;2023-04-26T11:44:04;10.30;99.90
33699;DHT22;20032;52.436;13.312;2023-04-26T11:46:29;10.10;99.90
33699;DHT22;20032;52.436;13.312;2023-04-26T11:48:55;9.90;99.90
33699;DHT22;20032;52.436;13.312;2023-04-26T11:51:21;9.90;99.90
33699;DHT22;20032;52.436;13.312;2023-04-26T11:53:50;9.90;99.90
33699;DHT22;20032;52.436;13.312;2023-04-26T11:56:18;9.90;99.90
33699;DHT22;20032;52.436;13.312;2023-04-26T11:58:48;9.80;99.90
33699;DHT22;20032;52.436;13.312;2023-04-26T12:01:29;9.70;99.90
33699;DHT22;20032;52.436;13.312;2023-04-26T12:03:57;9.90;99.90
33699;DHT22;20032;52.436;13.312;2023-04-26T12:06:31;9.90;99.90
33699;DHT22;20032;52.436;13.312;2023-04-26T12:09:05;9.90;99.90
33699;DHT22;20032;52.436;13.312;2023-04-26T12:11:33;10.10;99.90
33699;DHT22;20032;52.436;13.312;2023-04-26T12:13:58;10.70;99.90
33699;DHT22;20032;52.436;13.312;2023-04-26T12:16:24;11.20;99.90
33699;DHT22;20032;52.436;13.312;2023-04-26T12:18:50;11.30;99.90
33699;DHT22;20032;52.436;13.312;2023-04-26T12:21:17;11.10;99.90
33699;DHT22;20032;52.436;13.312;2023-04-26T12:23:42;10.90;99.90
33699;DHT22;20032;52.436;13.312;2023-04-26T12:26:12;10.60;99.90
33699;DHT22;20032;52.436;13.312;2023-04-26T12:28:37;10.50;99.90
33699;DHT22;20032;52.436;13.312;2023-04-26T12:31:03;10.10;99.90
33699;DHT22;20032;52.436;13.312;2023-04-26T12:33:29;10.10;99.90
33699;DHT22;20032;52.436;13.312;2023-04-26T12:35:55;9.80;99.90
33699;DHT22;20032;52.436;13.312;2023-04-26T12:38:22;9.80;99.90
33699;DHT22;20032;52.436;13.312;2023-04-26T12:40:47;10.00;98.90
33699;DHT22;20032;52.436;13.312;2023-04-26T12:43:13;10.10;99.30
33699;DHT22;20032;52.436;13.312;2023-04-26T12:45:40;10.40;98.40
33699;DHT22;20032;52.436;13.312;2023-04-26T12:48:06;10.90;98.50
33699;DHT22;20032;52.436;13.312;2023-04-26T12:50:32;11.70;97.60
33699;DHT22;20032;52.436;13.312;2023-04-26T12:52:57;13.00;96.60
33699;DHT22;20032;52.436;13.312;2023-04-26T12:55:23;14.40;95.50
33699;DHT22;20032;52.436;13.312;2023-04-26T12:57:49;15.20;92.30
33699;DHT22;20032;52.436;13.312;2023-04-26T13:00:16;14.40;93.10
33699;DHT22;20032;52.436;13.312;2023-04-26T13:02:43;14.30;94.30
33699;DHT22;20032;52.436;13.312;2023-04-26T13:05:08;13.80;94.10
33699;DHT22;20032;52.436;13.312;2023-04-26T13:07:36;13.90;94.60
33699;DHT22;20032;52.436;13.312;2023-04-26T13:10:03;15.10;93.60
33699;DHT22;20032;52.436;13.312;2023-04-26T13:12:29;15.70;92.20
33699;DHT22;20032;52.436;13.312;2023-04-26T13:14:55;16.40;91.00
33699;DHT22;20032;52.436;13.312;2023-04-26T13:17:22;16.30;89.80
33699;DHT22;20032;52.436;13.312;2023-04-26T13:19:48;15.20;91.00
33699;DHT22;20032;52.436;13.312;2023-04-26T13:22:14;13.60;93.10
33699;DHT22;20032;52.436;13.312;2023-04-26T13:24:40;12.90;94.00
33699;DHT22;20032;52.436;13.312;2023-04-26T13:27:06;12.60;94.60
33699;DHT22;20032;52.436;13.312;2023-04-26T13:29:31;12.80;94.40
33699;DHT22;20032;52.436;13.312;2023-04-26T13:31:57;12.90;95.40
33699;DHT22;20032;52.436;13.312;2023-04-26T13:34:24;13.30;95.10
33699;DHT22;20032;52.436;13.312;2023-04-26T13:36:50;13.20;94.30
33699;DHT22;20032;52.436;13.312;2023-04-26T13:39:16;12.80;93.80
33699;DHT22;20032;52.436;13.312;2023-04-26T13:41:41;12.30;94.50
33699;DHT22;20032;52.436;13.312;2023-04-26T13:44:07;12.10;94.70
33699;DHT22;20032;52.436;13.312;2023-04-26T13:46:33;11.80;95.00
33699;DHT22;20032;52.436;13.312;2023-04-26T13:48:59;11.30;95.80
33699;DHT22;20032;52.436;13.312;2023-04-26T13:51:25;11.20;97.50
33699;DHT22;20032;52.436;13.312;2023-04-26T13:53:52;11.30;96.20
33699;DHT22;20032;52.436;13.312;2023-04-26T13:56:18;11.50;96.10
33699;DHT22;20032;52.436;13.312;2023-04-26T13:58:44;11.90;95.00
33699;DHT22;20032;52.436;13.312;2023-04-26T14:01:10;11.80;94.60
33699;DHT22;20032;52.436;13.312;2023-04-26T14:03:35;11.60;95.40
33699;DHT22;20032;52.436;13.312;2023-04-26T14:06:01;11.30;95.40
33699;DHT22;20032;52.436;13.312;2023-04-26T14:08:28;11.30;95.90
33699;DHT22;20032;52.436;13.312;2023-04-26T14:10:54;11.60;95.90
33699;DHT22;20032;52.436;13.312;2023-04-26T14:13:19;11.70;95.60
33699;DHT22;20032;52.436;13.312;2023-04-26T14:15:45;11.90;95.60
33699;DHT22;20032;52.436;13.312;2023-04-26T14:18:11;12.20;96.20
33699;DHT22;20032;52.436;13.312;2023-04-26T14:20:36;12.70;95.20
33699;DHT22;20032;52.436;13.312;2023-04-26T14:23:02;13.10;94.50
33699;DHT22;20032;52.436;13.312;2023-04-26T14:25:27;13.20;93.60
33699;DHT22;20032;52.436;13.312;2023-04-26T14:27:53;13.50;93.50
33699;DHT22;20032;52.436;13.312;2023-04-26T14:30:19;14.10;93.00
33699;DHT22;20032;52.436;13.312;2023-04-26T14:32:45;14.50;92.30
33699;DHT22;20032;52.436;13.312;2023-04-26T14:35:10;14.50;92.30
33699;DHT22;20032;52.436;13.312;2023-04-26T14:37:36;14.60;91.80
33699;DHT22;20032;52.436;13.312;2023-04-26T14:40:02;14.30;92.10
33699;DHT22;20032;52.436;13.312;2023-04-26T14:42:28;14.50;91.50
33699;DHT22;20032;52.436;13.312;2023-04-26T14:44:53;14.10;92.00
33699;DHT22;20032;52.436;13.312;2023-04-26T14:47:19;14.40;91.50
33699;DHT22;20032;52.436;13.312;2023-04-26T14:49:45;14.30;91.80
33699;DHT22;20032;52.436;13.312;2023-04-26T14:52:11;13.70;91.70
33699;DHT22;20032;52.436;13.312;2023-04-26T14:54:38;13.10;92.50
33699;DHT22;20032;52.436;13.312;2023-04-26T14:57:03;13.00;93.70
33699;DHT22;20032;52.436;13.312;2023-04-26T14:59:29;13.00;93.10
33699;DHT22;20032;52.436;13.312;2023-04-26T15:01:54;12.80;93.30
33699;DHT22;20032;52.436;13.312;2023-04-26T15:04:20;12.60;94.20
33699;DHT22;20032;52.436;13.312;2023-04-26T15:06:46;12.90;93.90
33699;DHT22;20032;52.436;13.312;2023-04-26T15:09:11;12.90;93.30
33699;DHT22;20032;52.436;13.312;2023-04-26T15:11:37;12.60;94.00
33699;DHT22;20032;52.436;13.312;2023-04-26T15:14:03;13.50;93.30
33699;DHT22;20032;52.436;13.312;2023-04-26T15:16:29;13.50;93.10
33699;DHT22;20032;52.436;13.312;2023-04-26T15:18:54;12.90;93.40
33699;DHT22;20032;52.436;13.312;2023-04-26T15:21:20;13.00;93.60
33699;DHT22;20032;52.436;13.312;2023-04-26T15:23:45;13.50;93.10
33699;DHT22;20032;52.436;13.312;2023-04-26T15:26:11;13.30;92.40
33699;DHT22;20032;52.436;13.312;2023-04-26T15:28:36;13.30;92.70
33699;DHT22;20032;52.436;13.312;2023-04-26T15:31:04;13.40;92.80